Time;durP1;ratioP1;P1;durP2;ratioP2;P2;SDS_P1;SDS_P2;PMS_P1;PMS_P2;Temp;Humidity;BMP_temperature;BMP_pressure;BME280_temperature;BME280_humidity;BME280_pressure;Samples;Min_cycle;Max_cycle;Signal;HPM_P1;HPM_P2
2023/06/12 00:01:49;;;;;;;1.02;0.93;;;;;;;;;;5062800;28;20076;-61
2023/06/12 00:04:15;;;;;;;1.23;1.13;;;;;;;;;;5063042;28;20076;-61
2023/06/12 00:06:41;;;;;;;1.27;0.93;;;;;;;;;;5044959;28;20048;-61
2023/06/12 00:09:07;;;;;;;1.42;1.08;;;;;;;;;;5044712;28;20045;-61
2023/06/12 00:11:33;;;;;;;1.58;1.10;;;;;;;;;;5062363;28;20103;-61
2023/06/12 00:13:59;;;;;;;1.10;1.00;;;;;;;;;;5062549;28;20351;-61
2023/06/12 00:16:25;;;;;;;1.50;1.08;;;;;;;;;;5063010;28;20040;-61
2023/06/12 00:18:52;;;;;;;1.20;1.10;;;;;;;;;;5061695;28;20052;-61
2023/06/12 00:21:19;;;;;;;1.25;1.13;;;;;;;;;;5063093;28;20041;-61
2023/06/12 00:23:46;;;;;;;3.42;1.30;;;;;;;;;;5062994;28;20149;-61
2023/06/12 00:26:12;;;;;;;3.40;1.35;;;;;;;;;;5062337;28;20040;-61
2023/06/12 00:28:38;;;;;;;1.23;1.00;;;;;;;;;;5062423;28;20395;-61
2023/06/12 00:31:04;;;;;;;0.85;0.75;;;;;;;;;;5062183;28;20048;-61
2023/06/12 00:33:30;;;;;;;0.80;0.80;;;;;;;;;;5062180;28;20509;-61
2023/06/12 00:35:56;;;;;;;1.65;1.30;;;;;;;;;;5062383;28;20045;-61
2023/06/12 00:38:23;;;;;;;1.58;1.42;;;;;;;;;;5061640;28;20454;-61
2023/06/12 00:40:49;;;;;;;1.10;1.00;;;;;;;;;;5061941;28;20044;-61
2023/06/12 00:43:15;;;;;;;1.05;0.95;;;;;;;;;;5062753;28;20094;-61
2023/06/12 00:45:41;;;;;;;0.95;0.90;;;;;;;;;;5062122;28;20502;-61
2023/06/12 00:48:08;;;;;;;1.13;1.02;;;;;;;;;;5061905;28;20040;-61
2023/06/12 00:50:35;;;;;;;0.70;0.68;;;;;;;;;;5062536;28;20223;-61
2023/06/12 00:53:01;;;;;;;1.00;1.00;;;;;;;;;;5043889;28;20056;-61
2023/06/12 00:55:31;;;;;;;1.25;0.93;;;;;;;;;;5062499;28;20115;-61
2023/06/12 00:57:57;;;;;;;1.20;1.10;;;;;;;;;;5061912;28;20040;-62
2023/06/12 01:00:24;;;;;;;1.23;0.80;;;;;;;;;;5061640;28;20098;-61
2023/06/12 01:03:06;;;;;;;0.95;0.75;;;;;;;;;;5062142;28;20111;-61
2023/06/12 01:05:33;;;;;;;;;;;;;;;;;;5062850;28;20087;-61
2023/06/12 01:08:17;;;;;;;0.95;0.80;;;;;;;;;;5061597;28;19920;-61
2023/06/12 01:10:46;;;;;;;1.33;0.80;;;;;;;;;;5063148;28;20053;-61
2023/06/12 01:13:15;;;;;;;0.68;0.65;;;;;;;;;;5062539;28;20056;-61
2023/06/12 01:15:41;;;;;;;0.75;0.75;;;;;;;;;;5061704;28;20076;-61
2023/06/12 01:18:07;;;;;;;0.60;0.50;;;;;;;;;;5061712;28;20644;-61
2023/06/12 01:20:34;;;;;;;1.15;1.00;;;;;;;;;;5064931;28;20045;-61
2023/06/12 01:23:00;;;;;;;0.80;0.80;;;;;;;;;;5065275;28;20052;-61
2023/06/12 01:25:32;;;;;;;0.50;0.50;;;;;;;;;;5065870;28;20052;-61
2023/06/12 01:28:16;;;;;;;0.55;0.55;;;;;;;;;;5064679;28;20127;-61
2023/06/12 01:30:46;;;;;;;0.68;0.68;;;;;;;;;;5066219;28;20056;-61
2023/06/12 01:33:17;;;;;;;0.95;0.73;;;;;;;;;;5066528;28;20063;-61
2023/06/12 01:35:45;;;;;;;1.42;0.95;;;;;;;;;;5065783;28;20080;-61
2023/06/12 01:38:18;;;;;;;1.67;0.93;;;;;;;;;;5066061;28;20109;-61
2023/06/12 01:40:45;;;;;;;1.85;0.98;;;;;;;;;;5065937;28;20193;-61
2023/06/12 01:43:11;;;;;;;0.90;0.90;;;;;;;;;;5065066;28;20047;-61
2023/06/12 01:45:38;;;;;;;0.95;0.80;;;;;;;;;;5065439;28;20074;-61
2023/06/12 01:48:05;;;;;;;0.85;0.82;;;;;;;;;;5065080;28;20101;-61
2023/06/12 01:50:31;;;;;;;1.45;1.02;;;;;;;;;;5064580;28;20036;-61
2023/06/12 01:52:57;;;;;;;1.00;0.80;;;;;;;;;;5064741;28;20512;-61
2023/06/12 01:55:24;;;;;;;1.00;0.80;;;;;;;;;;5065298;28;20067;-61
2023/06/12 01:57:50;;;;;;;0.70;0.70;;;;;;;;;;5064026;28;20114;-61
2023/06/12 02:00:17;;;;;;;0.82;0.68;;;;;;;;;;5065420;28;20085;-61
2023/06/12 02:02:43;;;;;;;0.75;0.70;;;;;;;;;;5064916;28;20558;-61
2023/06/12 02:05:10;;;;;;;0.98;0.88;;;;;;;;;;5064787;28;20333;-61
2023/06/12 02:07:36;;;;;;;1.55;0.90;;;;;;;;;;5046963;28;20052;-62
2023/06/12 02:10:02;;;;;;;0.50;0.50;;;;;;;;;;5063797;28;20511;-61
2023/06/12 02:12:30;;;;;;;2.40;0.93;;;;;;;;;;5065079;28;20049;-61
2023/06/12 02:15:00;;;;;;;0.82;0.65;;;;;;;;;;5064781;28;20036;-61
2023/06/12 02:17:26;;;;;;;1.10;0.90;;;;;;;;;;5064515;28;20051;-61
2023/06/12 02:19:52;;;;;;;0.75;0.70;;;;;;;;;;5064261;28;20044;-61
2023/06/12 02:22:18;;;;;;;0.35;0.35;;;;;;;;;;5064521;28;20044;-61
2023/06/12 02:24:46;;;;;;;0.52;0.52;;;;;;;;;;5064509;28;20037;-61
2023/06/12 02:27:12;;;;;;;0.73;0.70;;;;;;;;;;5065026;28;20052;-61
2023/06/12 02:29:38;;;;;;;1.02;0.85;;;;;;;;;;5064469;28;20128;-61
2023/06/12 02:32:04;;;;;;;1.17;0.75;;;;;;;;;;5063350;28;20127;-61
2023/06/12 02:34:30;;;;;;;1.58;0.80;;;;;;;;;;5064239;28;20041;-61
2023/06/12 02:36:56;;;;;;;2.05;0.82;;;;;;;;;;5063947;28;20102;-61
2023/06/12 02:39:22;;;;;;;0.90;0.88;;;;;;;;;;5063452;28;20051;-61
2023/06/12 02:41:49;;;;;;;0.85;0.85;;;;;;;;;;5064014;28;20479;-61
2023/06/12 02:44:16;;;;;;;1.45;0.73;;;;;;;;;;5046583;28;20052;-61
2023/06/12 02:46:55;;;;;;;0.90;0.65;;;;;;;;;;5063818;28;20052;-61
2023/06/12 02:49:22;;;;;;;0.77;0.73;;;;;;;;;;5064154;28;20504;-61
2023/06/12 02:51:48;;;;;;;1.27;0.88;;;;;;;;;;5063785;28;20040;-61
2023/06/12 02:54:15;;;;;;;1.02;0.70;;;;;;;;;;5063873;28;20450;-61
2023/06/12 02:56:45;;;;;;;0.95;0.85;;;;;;;;;;5046485;28;20064;-61
2023/06/12 02:59:13;;;;;;;1.00;0.90;;;;;;;;;;5063130;28;20045;-61
2023/06/12 03:01:43;;;;;;;0.98;0.90;;;;;;;;;;5063975;28;20036;-61
2023/06/12 03:04:09;;;;;;;0.57;0.57;;;;;;;;;;5064113;28;20049;-61
2023/06/12 03:06:35;;;;;;;0.60;0.60;;;;;;;;;;5062920;28;20098;-61
2023/06/12 03:09:03;;;;;;;1.20;0.70;;;;;;;;;;5063451;28;20052;-61
2023/06/12 03:11:30;;;;;;;5.72;1.00;;;;;;;;;;5063766;28;20099;-61
2023/06/12 03:13:56;;;;;;;1.20;1.00;;;;;;;;;;5062369;28;20041;-61
2023/06/12 03:16:22;;;;;;;1.00;0.90;;;;;;;;;;5063521;28;20127;-61
2023/06/12 03:18:48;;;;;;;1.27;0.90;;;;;;;;;;5063184;28;20074;-61
2023/06/12 03:21:14;;;;;;;0.95;0.85;;;;;;;;;;5063190;28;20052;-61
2023/06/12 03:23:40;;;;;;;0.95;0.85;;;;;;;;;;5063406;28;20040;-61
2023/06/12 03:26:06;;;;;;;1.48;0.80;;;;;;;;;;5062975;28;20040;-61
2023/06/12 03:28:34;;;;;;;1.88;1.05;;;;;;;;;;5062778;28;20510;-61
2023/06/12 03:31:00;;;;;;;1.15;1.13;;;;;;;;;;5062957;28;20496;-61
2023/06/12 03:33:26;;;;;;;0.70;0.70;;;;;;;;;;5063240;28;20044;-61
2023/06/12 03:35:53;;;;;;;1.88;0.80;;;;;;;;;;5062290;28;20514;-61
2023/06/12 03:38:19;;;;;;;1.10;0.90;;;;;;;;;;5063359;28;20091;-61
2023/06/12 03:40:45;;;;;;;1.52;0.90;;;;;;;;;;5063658;28;20040;-61
2023/06/12 03:43:11;;;;;;;0.88;0.70;;;;;;;;;;5044141;28;20063;-61
2023/06/12 03:45:37;;;;;;;1.10;1.00;;;;;;;;;;5062980;28;20482;-61
2023/06/12 03:48:03;;;;;;;1.10;0.75;;;;;;;;;;5062522;28;20047;-61
2023/06/12 03:50:29;;;;;;;1.00;0.90;;;;;;;;;;5062472;28;20201;-61
2023/06/12 03:52:55;;;;;;;1.08;0.98;;;;;;;;;;5062691;28;20147;-61
2023/06/12 03:55:23;;;;;;;1.60;1.20;;;;;;;;;;5062577;28;20106;-61
2023/06/12 03:57:50;;;;;;;1.30;1.20;;;;;;;;;;5063021;28;20044;-61
2023/06/12 04:00:16;;;;;;;1.10;1.00;;;;;;;;;;5063203;28;20049;-61
2023/06/12 04:02:42;;;;;;;1.58;1.15;;;;;;;;;;5062591;28;20041;-61
2023/06/12 04:05:08;;;;;;;1.30;1.20;;;;;;;;;;5062429;28;20500;-61
2023/06/12 04:07:36;;;;;;;1.30;1.20;;;;;;;;;;5063158;28;20041;-61
2023/06/12 04:10:03;;;;;;;0.98;0.98;;;;;;;;;;5061672;28;20056;-61
2023/06/12 04:12:29;;;;;;;1.90;1.10;;;;;;;;;;5062953;28;20072;-60
2023/06/12 04:14:55;;;;;;;1.30;1.15;;;;;;;;;;5062430;28;20036;-61
2023/06/12 04:17:21;;;;;;;0.90;0.70;;;;;;;;;;5062097;28;20048;-61
2023/06/12 04:19:49;;;;;;;1.98;1.25;;;;;;;;;;5062528;28;20086;-61
2023/06/12 04:22:16;;;;;;;1.85;1.25;;;;;;;;;;5063174;28;20051;-61
2023/06/12 04:24:43;;;;;;;2.63;1.17;;;;;;;;;;5062521;28;20045;-61
2023/06/12 04:27:10;;;;;;;1.20;1.10;;;;;;;;;;5062313;28;20445;-61
2023/06/12 04:29:42;;;;;;;1.50;1.40;;;;;;;;;;5062424;28;20475;-61
2023/06/12 04:32:09;;;;;;;2.20;1.05;;;;;;;;;;5061534;28;20059;-61
2023/06/12 04:34:40;;;;;;;1.50;1.27;;;;;;;;;;5062738;28;20127;-61
2023/06/12 04:37:11;;;;;;;1.08;0.98;;;;;;;;;;5062173;28;20492;-61
2023/06/12 04:39:38;;;;;;;1.20;1.07;;;;;;;;;;5062134;28;20091;-61
2023/06/12 04:42:05;;;;;;;1.10;1.00;;;;;;;;;;5062152;28;20266;-61
2023/06/12 04:44:34;;;;;;;1.13;1.02;;;;;;;;;;5062068;28;20044;-61
2023/06/12 04:47:07;;;;;;;1.00;0.90;;;;;;;;;;5062363;28;20040;-61
2023/06/12 04:49:33;;;;;;;2.78;0.80;;;;;;;;;;5062719;28;20059;-60
2023/06/12 04:52:03;;;;;;;1.15;1.00;;;;;;;;;;5061684;28;20040;-61
2023/06/12 04:54:31;;;;;;;0.95;0.88;;;;;;;;;;5064234;28;20565;-61
2023/06/12 04:56:57;;;;;;;1.20;1.02;;;;;;;;;;5065650;28;20041;-61
2023/06/12 04:59:23;;;;;;;1.08;1.00;;;;;;;;;;5065589;28;20041;-61
2023/06/12 05:01:49;;;;;;;0.93;0.93;;;;;;;;;;5065968;28;20039;-61
2023/06/12 05:04:16;;;;;;;1.95;1.23;;;;;;;;;;5066638;28;20090;-61
2023/06/12 05:06:42;;;;;;;1.25;0.90;;;;;;;;;;5066248;28;20123;-61
2023/06/12 05:09:08;;;;;;;1.00;0.90;;;;;;;;;;5065623;28;20153;-61
2023/06/12 05:11:34;;;;;;;1.00;0.85;;;;;;;;;;5065962;28;20119;-61
2023/06/12 05:14:00;;;;;;;2.05;0.93;;;;;;;;;;5064800;28;20048;-60
2023/06/12 05:16:28;;;;;;;1.55;0.82;;;;;;;;;;5047958;28;20462;-60
2023/06/12 05:18:54;;;;;;;0.98;0.93;;;;;;;;;;5065760;28;20055;-61
2023/06/12 05:21:20;;;;;;;0.98;0.70;;;;;;;;;;5065260;28;20041;-61
2023/06/12 05:23:46;;;;;;;1.20;1.02;;;;;;;;;;5065286;28;20037;-61
2023/06/12 05:26:12;;;;;;;0.80;0.80;;;;;;;;;;5066163;28;20048;-61
2023/06/12 05:28:38;;;;;;;1.40;1.08;;;;;;;;;;5065155;28;20082;-61
2023/06/12 05:31:05;;;;;;;1.83;1.00;;;;;;;;;;5065760;28;20127;-61
2023/06/12 05:33:32;;;;;;;0.85;0.85;;;;;;;;;;5065871;28;20068;-61
2023/06/12 05:35:59;;;;;;;0.90;0.88;;;;;;;;;;5064470;28;20098;-61
2023/06/12 05:38:25;;;;;;;1.10;1.10;;;;;;;;;;5065416;28;20055;-61
2023/06/12 05:40:52;;;;;;;1.00;0.88;;;;;;;;;;5064204;28;20048;-61
2023/06/12 05:43:18;;;;;;;1.42;0.98;;;;;;;;;;5065355;28;20105;-61
2023/06/12 05:45:44;;;;;;;2.67;0.80;;;;;;;;;;5066254;28;20041;-61
2023/06/12 05:48:10;;;;;;;0.77;0.77;;;;;;;;;;5064687;28;20052;-61
2023/06/12 05:50:36;;;;;;;0.90;0.80;;;;;;;;;;5047145;28;20052;-61
2023/06/12 05:53:04;;;;;;;0.63;0.63;;;;;;;;;;5064884;28;20037;-61
2023/06/12 05:55:30;;;;;;;0.68;0.68;;;;;;;;;;5064842;28;20419;-61
2023/06/12 05:57:56;;;;;;;0.60;0.60;;;;;;;;;;5064868;28;20044;-61
2023/06/12 06:00:23;;;;;;;0.65;0.63;;;;;;;;;;5065343;28;20048;-61
2023/06/12 06:02:49;;;;;;;0.77;0.77;;;;;;;;;;5064098;28;20099;-61
2023/06/12 06:05:16;;;;;;;0.47;0.47;;;;;;;;;;5065076;28;20136;-61
2023/06/12 06:07:42;;;;;;;0.82;0.82;;;;;;;;;;5065168;28;20565;-61
2023/06/12 06:10:08;;;;;;;1.10;0.90;;;;;;;;;;5063756;28;20079;-61
2023/06/12 06:12:34;;;;;;;1.10;0.98;;;;;;;;;;5065158;28;20481;-61
2023/06/12 06:15:00;;;;;;;2.15;1.00;;;;;;;;;;5064953;28;20040;-61
2023/06/12 06:17:27;;;;;;;0.85;0.85;;;;;;;;;;5064013;28;20535;-61
2023/06/12 06:19:53;;;;;;;0.90;0.90;;;;;;;;;;5064436;28;20044;-61
2023/06/12 06:22:19;;;;;;;0.88;0.60;;;;;;;;;;5064784;28;20098;-61
2023/06/12 06:24:45;;;;;;;1.73;0.90;;;;;;;;;;5064509;28;20143;-61
2023/06/12 06:27:11;;;;;;;1.23;0.73;;;;;;;;;;5065020;28;20205;-61
2023/06/12 06:29:37;;;;;;;1.30;1.20;;;;;;;;;;5064465;28;20143;-61
2023/06/12 06:32:03;;;;;;;1.15;1.00;;;;;;;;;;5063337;28;20044;-61
2023/06/12 06:34:30;;;;;;;1.10;1.00;;;;;;;;;;5064452;28;20045;-61
2023/06/12 06:36:56;;;;;;;1.13;0.90;;;;;;;;;;5064154;28;20296;-61
2023/06/12 06:39:22;;;;;;;1.00;0.90;;;;;;;;;;5064058;28;20507;-61
2023/06/12 06:41:49;;;;;;;1.98;0.80;;;;;;;;;;5064286;28;20044;-61
2023/06/12 06:44:15;;;;;;;0.90;0.90;;;;;;;;;;5064160;28;20053;-61
2023/06/12 06:46:42;;;;;;;0.80;0.80;;;;;;;;;;5046770;28;20044;-61
2023/06/12 06:49:08;;;;;;;3.25;1.52;;;;;;;;;;5064353;28;20032;-61
2023/06/12 06:51:34;;;;;;;1.02;0.93;;;;;;;;;;5063282;28;20047;-61
2023/06/12 06:54:00;;;;;;;1.17;1.05;;;;;;;;;;5063892;28;20075;-61
2023/06/12 06:56:26;;;;;;;1.02;0.80;;;;;;;;;;5046099;28;20052;-61
2023/06/12 06:58:52;;;;;;;0.93;0.70;;;;;;;;;;5062887;28;20118;-61
2023/06/12 07:01:18;;;;;;;0.73;0.73;;;;;;;;;;5063844;28;20490;-61
2023/06/12 07:03:44;;;;;;;1.85;1.23;;;;;;;;;;5064448;28;20041;-61
2023/06/12 07:06:10;;;;;;;0.82;0.80;;;;;;;;;;5062771;28;20428;-61
2023/06/12 07:08:35;;;;;;;0.63;0.60;;;;;;;;;;5063791;28;20056;-61
2023/06/12 07:11:01;;;;;;;1.02;0.90;;;;;;;;;;5063534;28;20056;-61
2023/06/12 07:13:28;;;;;;;1.40;1.05;;;;;;;;;;5063454;28;20049;-61
2023/06/12 07:15:54;;;;;;;1.63;1.40;;;;;;;;;;5062842;28;20575;-61
2023/06/12 07:18:20;;;;;;;2.13;1.10;;;;;;;;;;5062899;28;20541;-61
2023/06/12 07:20:46;;;;;;;1.10;1.00;;;;;;;;;;5062666;28;20484;-61
2023/06/12 07:23:12;;;;;;;1.13;1.02;;;;;;;;;;5064268;28;20041;-61
2023/06/12 07:25:38;;;;;;;1.80;1.23;;;;;;;;;;5063880;28;20048;-61
2023/06/12 07:28:04;;;;;;;0.60;0.60;;;;;;;;;;5062576;28;20133;-61
2023/06/12 07:30:30;;;;;;;1.25;1.05;;;;;;;;;;5064555;28;20040;-61
2023/06/12 07:32:56;;;;;;;1.13;1.02;;;;;;;;;;5064350;28;20109;-61
2023/06/12 07:35:22;;;;;;;2.15;1.40;;;;;;;;;;5064139;28;20044;-61
2023/06/12 07:37:49;;;;;;;7.43;1.83;;;;;;;;;;5064601;28;20044;-61
2023/06/12 07:40:16;;;;;;;1.70;1.55;;;;;;;;;;5065284;28;20309;-61
2023/06/12 07:42:45;;;;;;;1.30;1.20;;;;;;;;;;5063688;28;20403;-61
2023/06/12 07:45:11;;;;;;;1.70;1.58;;;;;;;;;;5045336;28;20036;-61
2023/06/12 07:47:37;;;;;;;2.05;1.45;;;;;;;;;;5062383;28;20458;-61
2023/06/12 07:50:04;;;;;;;1.85;1.40;;;;;;;;;;5062748;28;20070;-61
2023/06/12 07:52:30;;;;;;;1.42;1.30;;;;;;;;;;5063708;28;20456;-61
2023/06/12 07:54:57;;;;;;;2.70;1.63;;;;;;;;;;5062181;28;20076;-61
2023/06/12 07:57:23;;;;;;;2.08;1.88;;;;;;;;;;5063302;28;20423;-61
2023/06/12 07:59:50;;;;;;;1.55;1.45;;;;;;;;;;5062722;28;20051;-61
2023/06/12 08:02:16;;;;;;;1.90;1.67;;;;;;;;;;5062380;28;20056;-61
2023/06/12 08:04:42;;;;;;;1.30;1.20;;;;;;;;;;5063874;28;20043;-61
2023/06/12 08:07:15;;;;;;;1.20;1.10;;;;;;;;;;5062547;28;20051;-61
2023/06/12 08:09:42;;;;;;;3.35;1.58;;;;;;;;;;5062649;28;20056;-61
2023/06/12 08:12:10;;;;;;;3.70;2.00;;;;;;;;;;5062523;28;20048;-61
2023/06/12 08:14:36;;;;;;;2.03;1.80;;;;;;;;;;5062918;28;20650;-61
2023/06/12 08:17:02;;;;;;;2.25;2.05;;;;;;;;;;5061925;28;20458;-62
2023/06/12 08:19:28;;;;;;;3.53;1.65;;;;;;;;;;5063035;28;20123;-61
2023/06/12 08:21:54;;;;;;;3.85;2.60;;;;;;;;;;5062599;28;20187;-61
2023/06/12 08:24:20;;;;;;;2.38;2.17;;;;;;;;;;5061895;28;20169;-61
2023/06/12 08:26:46;;;;;;;1.75;1.65;;;;;;;;;;5062716;28;20048;-61
2023/06/12 08:29:12;;;;;;;1.98;1.65;;;;;;;;;;5066991;28;20295;-61
2023/06/12 08:31:40;;;;;;;4.70;2.47;;;;;;;;;;5066256;28;20066;-61
2023/06/12 08:34:06;;;;;;;3.40;2.22;;;;;;;;;;5066608;28;20127;-61
2023/06/12 08:36:35;;;;;;;2.47;1.95;;;;;;;;;;5066500;28;20047;-61
2023/06/12 08:39:01;;;;;;;2.75;2.10;;;;;;;;;;5066283;28;20048;-61
2023/06/12 08:41:28;;;;;;;2.67;1.95;;;;;;;;;;5066547;28;20174;-61
2023/06/12 08:43:59;;;;;;;1.80;1.70;;;;;;;;;;5065826;28;20213;-61
2023/06/12 08:46:28;;;;;;;1.63;1.53;;;;;;;;;;5066709;28;20170;-61
2023/06/12 08:48:54;;;;;;;2.10;1.90;;;;;;;;;;5066368;28;20047;-61
2023/06/12 08:51:20;;;;;;;1.77;1.67;;;;;;;;;;5065650;28;20057;-61
2023/06/12 08:53:47;;;;;;;2.00;1.80;;;;;;;;;;5066245;28;20041;-61
2023/06/12 08:56:14;;;;;;;1.95;1.85;;;;;;;;;;5066894;28;20462;-61
2023/06/12 08:58:40;;;;;;;1.90;1.80;;;;;;;;;;5065600;28;20127;-61
2023/06/12 09:01:08;;;;;;;1.88;1.67;;;;;;;;;;5066070;28;20116;-61
2023/06/12 09:03:35;;;;;;;1.77;1.67;;;;;;;;;;5066285;28;20049;-61
2023/06/12 09:06:05;;;;;;;3.67;2.30;;;;;;;;;;5065067;28;20059;-61
2023/06/12 09:08:32;;;;;;;1.80;1.70;;;;;;;;;;5065996;28;20079;-61
2023/06/12 09:10:59;;;;;;;2.30;2.10;;;;;;;;;;5065628;28;20507;-61
2023/06/12 09:13:25;;;;;;;1.60;1.50;;;;;;;;;;5065475;28;20076;-61
2023/06/12 09:15:55;;;;;;;2.47;1.80;;;;;;;;;;5065837;28;20125;-61
2023/06/12 09:18:21;;;;;;;2.03;1.88;;;;;;;;;;5065984;28;20090;-61
2023/06/12 09:20:49;;;;;;;3.05;2.17;;;;;;;;;;5064913;28;20148;-61
2023/06/12 09:23:17;;;;;;;1.70;1.60;;;;;;;;;;5066249;28;20106;-61
2023/06/12 09:25:46;;;;;;;1.98;1.85;;;;;;;;;;5066239;28;20048;-61
2023/06/12 09:28:12;;;;;;;2.42;1.92;;;;;;;;;;5066057;28;20047;-61
2023/06/12 09:30:42;;;;;;;1.70;1.60;;;;;;;;;;5065522;28;20558;-62
2023/06/12 09:33:09;;;;;;;1.52;1.42;;;;;;;;;;5064686;28;20040;-61
2023/06/12 09:35:55;;;;;;;1.70;1.60;;;;;;;;;;5065590;28;20496;-61
2023/06/12 09:38:31;;;;;;;1.88;1.35;;;;;;;;;;5065758;28;20139;-61
2023/06/12 09:40:57;;;;;;;3.67;2.83;;;;;;;;;;5063584;28;20052;-61
2023/06/12 09:43:26;;;;;;;2.92;2.33;;;;;;;;;;5065385;28;20098;-62
2023/06/12 09:45:53;;;;;;;2.35;2.15;;;;;;;;;;5065136;28;20083;-62
2023/06/12 09:48:19;;;;;;;2.25;2.15;;;;;;;;;;5064355;28;20444;-61
2023/06/12 09:50:46;;;;;;;2.15;1.95;;;;;;;;;;5065852;28;20051;-61
2023/06/12 09:53:16;;;;;;;1.92;1.83;;;;;;;;;;5065821;28;20098;-61
2023/06/12 09:55:44;;;;;;;2.20;1.75;;;;;;;;;;5065174;28;20466;-61
2023/06/12 09:58:12;;;;;;;1.50;1.40;;;;;;;;;;5065090;28;20052;-61
2023/06/12 10:00:38;;;;;;;1.77;1.63;;;;;;;;;;5065351;28;20040;-61
2023/06/12 10:03:06;;;;;;;1.83;1.73;;;;;;;;;;5064448;28;20124;-61
2023/06/12 10:05:35;;;;;;;4.47;2.30;;;;;;;;;;5065030;28;20048;-61
2023/06/12 10:08:01;;;;;;;2.67;2.47;;;;;;;;;;5064073;28;20044;-61
2023/06/12 10:10:28;;;;;;;2.03;1.85;;;;;;;;;;5064595;28;20131;-61
2023/06/12 10:12:54;;;;;;;2.00;1.90;;;;;;;;;;5064837;28;20102;-62
2023/06/12 10:15:20;;;;;;;2.13;1.92;;;;;;;;;;5063951;28;20043;-62
2023/06/12 10:17:47;;;;;;;2.88;2.60;;;;;;;;;;5064676;28;20075;-62
2023/06/12 10:20:13;;;;;;;2.72;2.00;;;;;;;;;;5065226;28;20518;-61
2023/06/12 10:22:39;;;;;;;2.80;2.25;;;;;;;;;;5064329;28;20041;-61
2023/06/12 10:25:06;;;;;;;2.05;1.85;;;;;;;;;;5064437;28;20063;-61
2023/06/12 10:27:32;;;;;;;1.88;1.77;;;;;;;;;;5064522;28;20410;-61
2023/06/12 10:30:00;;;;;;;2.00;1.90;;;;;;;;;;5063270;28;20557;-61
2023/06/12 10:32:33;;;;;;;2.10;2.00;;;;;;;;;;5064877;28;20040;-61
2023/06/12 10:35:01;;;;;;;2.42;2.22;;;;;;;;;;5064378;28;20044;-61
2023/06/12 10:37:27;;;;;;;2.28;2.08;;;;;;;;;;5063703;28;20082;-61
2023/06/12 10:40:07;;;;;;;1.90;1.80;;;;;;;;;;5063862;28;20055;-61
2023/06/12 10:42:45;;;;;;;2.10;1.95;;;;;;;;;;5064268;28;20049;-61
2023/06/12 10:45:15;;;;;;;1.90;1.80;;;;;;;;;;5064077;28;20040;-61
2023/06/12 10:47:42;;;;;;;2.20;1.90;;;;;;;;;;5046588;28;20040;-61
2023/06/12 10:50:08;;;;;;;2.38;2.03;;;;;;;;;;5063491;28;20040;-61
2023/06/12 10:52:35;;;;;;;2.40;2.20;;;;;;;;;;5062734;28;20056;-61
2023/06/12 10:55:13;;;;;;;1.90;1.65;;;;;;;;;;5063602;28;20040;-61
2023/06/12 10:57:39;;;;;;;2.90;2.17;;;;;;;;;;5063471;28;20051;-61
2023/06/12 11:00:08;;;;;;;2.33;2.13;;;;;;;;;;5063791;28;20044;-61
2023/06/12 11:02:34;;;;;;;2.00;1.90;;;;;;;;;;5063743;28;20603;-61
2023/06/12 11:05:04;;;;;;;2.63;2.20;;;;;;;;;;5063142;28;20048;-61
2023/06/12 11:07:34;;;;;;;2.13;2.03;;;;;;;;;;5063638;28;20143;-61
2023/06/12 11:10:09;;;;;;;2.10;2.00;;;;;;;;;;5063407;28;20048;-61
2023/06/12 11:12:37;;;;;;;2.13;1.90;;;;;;;;;;5062967;28;20060;-62
2023/06/12 11:15:03;;;;;;;2.83;2.28;;;;;;;;;;5063635;28;20052;-62
2023/06/12 11:17:29;;;;;;;2.08;1.80;;;;;;;;;;5063915;28;20537;-62
2023/06/12 11:20:00;;;;;;;2.30;2.08;;;;;;;;;;5062404;28;20499;-61
2023/06/12 11:22:26;;;;;;;2.05;1.85;;;;;;;;;;5063268;28;20037;-62
2023/06/12 11:25:05;;;;;;;2.25;2.00;;;;;;;;;;5063564;28;20454;-62
2023/06/12 11:27:31;;;;;;;2.15;2.00;;;;;;;;;;5063588;28;20423;-63
2023/06/12 11:30:06;;;;;;;2.10;2.00;;;;;;;;;;5063238;28;20048;-63
2023/06/12 11:32:32;;;;;;;2.70;2.45;;;;;;;;;;5062946;28;20131;-63
2023/06/12 11:34:59;;;;;;;3.08;2.33;;;;;;;;;;5063331;28;20127;-63
2023/06/12 11:37:26;;;;;;;2.22;2.13;;;;;;;;;;5063275;28;20074;-63
2023/06/12 11:40:08;;;;;;;2.30;2.13;;;;;;;;;;5062256;28;20051;-63
2023/06/12 11:42:35;;;;;;;2.55;2.35;;;;;;;;;;5063256;28;20044;-63
2023/06/12 11:45:01;;;;;;;2.40;2.20;;;;;;;;;;5063307;28;20402;-63
2023/06/12 11:47:28;;;;;;;2.55;2.35;;;;;;;;;;5062250;28;20503;-63
2023/06/12 11:49:54;;;;;;;1.98;1.88;;;;;;;;;;5063253;28;20080;-63
2023/06/12 11:52:21;;;;;;;2.70;2.35;;;;;;;;;;5062897;28;20051;-63
2023/06/12 11:54:57;;;;;;;2.05;1.95;;;;;;;;;;5062657;28;20079;-63
2023/06/12 11:57:26;;;;;;;2.30;2.10;;;;;;;;;;5045128;28;20049;-63
2023/06/12 11:59:53;;;;;;;2.63;2.42;;;;;;;;;;5062655;28;20127;-63
2023/06/12 12:02:19;;;;;;;2.80;2.60;;;;;;;;;;5061995;28;20040;-63
2023/06/12 12:04:45;;;;;;;2.65;2.45;;;;;;;;;;5063509;28;20032;-63
2023/06/12 12:07:14;;;;;;;2.50;2.30;;;;;;;;;;5062983;28;20053;-63
2023/06/12 12:09:40;;;;;;;2.70;2.50;;;;;;;;;;5062272;28;20055;-63
2023/06/12 12:12:10;;;;;;;3.20;2.90;;;;;;;;;;5062365;28;20044;-63
2023/06/12 12:14:48;;;;;;;3.20;3.00;;;;;;;;;;5044379;28;20087;-63
2023/06/12 12:17:15;;;;;;;3.10;2.80;;;;;;;;;;5063484;28;20080;-63
2023/06/12 12:19:42;;;;;;;3.40;3.20;;;;;;;;;;5062669;28;20054;-63
2023/06/12 12:22:11;;;;;;;3.42;3.13;;;;;;;;;;5061791;28;20114;-63
2023/06/12 12:24:37;;;;;;;2.90;2.70;;;;;;;;;;5062581;28;20048;-63
2023/06/12 12:27:03;;;;;;;2.97;2.75;;;;;;;;;;5062145;28;20523;-63
2023/06/12 12:29:32;;;;;;;3.28;2.97;;;;;;;;;;5061954;28;20055;-63
2023/06/12 12:31:58;;;;;;;3.10;2.80;;;;;;;;;;5062258;28;20119;-63
2023/06/12 12:34:26;;;;;;;2.72;2.53;;;;;;;;;;5044709;28;20271;-63
2023/06/12 12:36:52;;;;;;;2.85;2.65;;;;;;;;;;5061542;28;20512;-63
2023/06/12 12:39:18;;;;;;;3.30;2.95;;;;;;;;;;5062766;28;20049;-63
2023/06/12 12:41:44;;;;;;;3.75;3.38;;;;;;;;;;5063327;28;20049;-63
2023/06/12 12:44:11;;;;;;;3.67;3.38;;;;;;;;;;5061976;28;20481;-63
2023/06/12 12:46:37;;;;;;;3.38;3.00;;;;;;;;;;5062390;28;20115;-63
2023/06/12 12:49:03;;;;;;;2.58;2.40;;;;;;;;;;5062106;28;20047;-63
2023/06/12 12:51:29;;;;;;;2.63;2.30;;;;;;;;;;5061747;28;20044;-63
2023/06/12 12:53:56;;;;;;;3.45;2.97;;;;;;;;;;5062265;28;20434;-63
2023/06/12 12:56:22;;;;;;;3.15;2.95;;;;;;;;;;5062148;28;20134;-63
2023/06/12 12:58:49;;;;;;;3.05;2.80;;;;;;;;;;5061791;28;20072;-63
2023/06/12 13:01:16;;;;;;;2.78;2.58;;;;;;;;;;5062508;28;20080;-63
2023/06/12 13:03:42;;;;;;;3.97;2.60;;;;;;;;;;5062175;28;20045;-63
2023/06/12 13:06:10;;;;;;;2.92;2.72;;;;;;;;;;5061390;28;20083;-63
2023/06/12 13:08:36;;;;;;;3.17;2.97;;;;;;;;;;5062131;28;20122;-63
2023/06/12 13:11:03;;;;;;;4.22;3.85;;;;;;;;;;5061535;28;20049;-63
2023/06/12 13:13:29;;;;;;;3.60;3.25;;;;;;;;;;5062434;28;20040;-63
2023/06/12 13:15:55;;;;;;;3.20;2.90;;;;;;;;;;5064795;28;20093;-63
2023/06/12 13:18:21;;;;;;;2.70;2.50;;;;;;;;;;5065081;28;20036;-63
2023/06/12 13:20:47;;;;;;;2.47;2.33;;;;;;;;;;5066058;28;20246;-63
2023/06/12 13:23:13;;;;;;;4.35;3.70;;;;;;;;;;5066686;28;20053;-63
2023/06/12 13:25:39;;;;;;;3.63;3.33;;;;;;;;;;5065031;28;20045;-63
2023/06/12 13:28:05;;;;;;;3.53;3.22;;;;;;;;;;5065618;28;20558;-63
2023/06/12 13:30:31;;;;;;;3.63;3.40;;;;;;;;;;5065557;28;20373;-63
2023/06/12 13:32:57;;;;;;;3.67;3.13;;;;;;;;;;5064968;28;20086;-63
2023/06/12 13:35:24;;;;;;;3.38;3.08;;;;;;;;;;5065559;28;20118;-63
2023/06/12 13:37:51;;;;;;;4.00;3.53;;;;;;;;;;5065381;28;20475;-63
2023/06/12 13:40:17;;;;;;;3.60;3.40;;;;;;;;;;5065329;28;20053;-63
2023/06/12 13:42:44;;;;;;;4.07;3.78;;;;;;;;;;5065977;28;20341;-63
2023/06/12 13:45:11;;;;;;;3.63;3.33;;;;;;;;;;5065613;28;20541;-63
2023/06/12 13:47:37;;;;;;;4.15;3.85;;;;;;;;;;5064488;28;20602;-63
2023/06/12 13:50:07;;;;;;;4.10;3.60;;;;;;;;;;5064928;28;20048;-63
2023/06/12 13:52:33;;;;;;;3.40;3.10;;;;;;;;;;5064794;28;20499;-63
2023/06/12 13:54:59;;;;;;;3.60;3.30;;;;;;;;;;5064376;28;20571;-63
2023/06/12 13:57:25;;;;;;;2.78;2.58;;;;;;;;;;5064982;28;20044;-63
2023/06/12 13:59:51;;;;;;;3.33;3.03;;;;;;;;;;5064585;28;20047;-63
2023/06/12 14:02:17;;;;;;;4.18;3.40;;;;;;;;;;5064427;28;20162;-63
2023/06/12 14:04:43;;;;;;;3.85;3.55;;;;;;;;;;5065459;28;20044;-63
2023/06/12 14:07:09;;;;;;;3.53;3.22;;;;;;;;;;5064062;28;20158;-63
2023/06/12 14:09:36;;;;;;;3.08;2.88;;;;;;;;;;5064899;28;20151;-63
2023/06/12 14:12:03;;;;;;;3.20;3.00;;;;;;;;;;5064684;28;20088;-63
2023/06/12 14:14:29;;;;;;;2.97;2.78;;;;;;;;;;5064066;28;20352;-63
2023/06/12 14:16:55;;;;;;;3.10;2.90;;;;;;;;;;5064923;28;20097;-63
2023/06/12 14:19:21;;;;;;;3.05;2.85;;;;;;;;;;5064932;28;20051;-63
2023/06/12 14:21:47;;;;;;;2.70;2.55;;;;;;;;;;5064103;28;20036;-63
2023/06/12 14:24:13;;;;;;;2.97;2.78;;;;;;;;;;5065082;28;20071;-63
2023/06/12 14:26:39;;;;;;;3.10;2.90;;;;;;;;;;5064341;28;20492;-63
2023/06/12 14:29:05;;;;;;;3.40;3.10;;;;;;;;;;5063458;28;20049;-63
2023/06/12 14:31:31;;;;;;;3.00;2.80;;;;;;;;;;5064910;28;20377;-63
2023/06/12 14:33:57;;;;;;;3.10;2.90;;;;;;;;;;5064127;28;20068;-63
2023/06/12 14:36:23;;;;;;;3.08;2.88;;;;;;;;;;5063987;28;20053;-63
2023/06/12 14:38:49;;;;;;;3.17;2.88;;;;;;;;;;5064370;28;20052;-63
2023/06/12 14:41:15;;;;;;;3.05;2.85;;;;;;;;;;5064768;28;20093;-63
2023/06/12 14:43:42;;;;;;;3.05;2.75;;;;;;;;;;5064480;28;20112;-63